Terminal Aerodrome Forecast
Issued by NWS Kansas City/Pleasant Hill, MO

Home | Current Version | Previous Version | Text Only | Print | Product List | Glossary On
Versions: 1 2 3 4 5 6 7 8 9 10 11 12 13 14 15 16 17 18 19 20 21 22 23 24
000
FTUS43 KEAX 162300
TAFMCI
TAF
KMCI 162322Z 1700/1724 11004KT P6SM SCT150
     FM170400 13007KT P6SM BKN100
     FM171000 14005KT P6SM VCTS BKN012 OVC060CB
     FM171600 12006KT P6SM SCT025=

USA.gov is the U.S. government's official web portal to all federal, state and local government web resources and services.